sensor_id;sensor_type;location;lat;lon;timestamp;P1;durP1;ratioP1;P2;durP2;ratioP2
46765;SDS011;32527;51.986;5.842;2022-10-31T00:02:07;32.40;;;15.50;;
46765;SDS011;32527;51.986;5.842;2022-10-31T00:04:33;29.77;;;13.75;;
46765;SDS011;32527;51.986;5.842;2022-10-31T00:06:59;25.38;;;15.23;;
46765;SDS011;32527;51.986;5.842;2022-10-31T00:09:24;25.75;;;14.43;;
46765;SDS011;32527;51.986;5.842;2022-10-31T00:11:50;22.42;;;14.73;;
46765;SDS011;32527;51.986;5.842;2022-10-31T00:14:15;26.02;;;15.23;;
46765;SDS011;32527;51.986;5.842;2022-10-31T00:16:41;25.35;;;14.73;;
46765;SDS011;32527;51.986;5.842;2022-10-31T00:19:07;25.88;;;14.27;;
46765;SDS011;32527;51.986;5.842;2022-10-31T00:21:33;23.17;;;13.77;;
46765;SDS011;32527;51.986;5.842;2022-10-31T00:24:00;26.58;;;14.82;;
46765;SDS011;32527;51.986;5.842;2022-10-31T00:26:27;27.67;;;14.95;;
46765;SDS011;32527;51.986;5.842;2022-10-31T00:28:53;25.35;;;13.63;;
46765;SDS011;32527;51.986;5.842;2022-10-31T00:31:19;28.10;;;14.05;;
46765;SDS011;32527;51.986;5.842;2022-10-31T00:33:45;23.58;;;14.02;;
46765;SDS011;32527;51.986;5.842;2022-10-31T00:36:12;26.63;;;14.45;;
46765;SDS011;32527;51.986;5.842;2022-10-31T00:38:41;28.48;;;15.00;;
46765;SDS011;32527;51.986;5.842;2022-10-31T00:41:07;30.35;;;14.98;;
46765;SDS011;32527;51.986;5.842;2022-10-31T00:43:33;24.23;;;14.82;;
46765;SDS011;32527;51.986;5.842;2022-10-31T00:45:59;26.17;;;14.52;;
46765;SDS011;32527;51.986;5.842;2022-10-31T00:48:25;25.02;;;13.95;;
46765;SDS011;32527;51.986;5.842;2022-10-31T00:50:52;24.65;;;15.63;;
46765;SDS011;32527;51.986;5.842;2022-10-31T00:53:17;28.95;;;15.40;;
46765;SDS011;32527;51.986;5.842;2022-10-31T00:55:43;29.65;;;15.95;;
46765;SDS011;32527;51.986;5.842;2022-10-31T00:58:09;27.10;;;16.05;;
46765;SDS011;32527;51.986;5.842;2022-10-31T01:00:38;29.65;;;16.48;;
46765;SDS011;32527;51.986;5.842;2022-10-31T01:03:03;30.98;;;16.48;;
46765;SDS011;32527;51.986;5.842;2022-10-31T01:05:29;28.38;;;16.30;;
46765;SDS011;32527;51.986;5.842;2022-10-31T01:07:55;30.13;;;14.85;;
46765;SDS011;32527;51.986;5.842;2022-10-31T01:10:20;30.85;;;16.00;;
46765;SDS011;32527;51.986;5.842;2022-10-31T01:12:47;28.83;;;15.25;;
46765;SDS011;32527;51.986;5.842;2022-10-31T01:15:14;25.17;;;14.45;;
46765;SDS011;32527;51.986;5.842;2022-10-31T01:17:42;29.08;;;14.52;;
46765;SDS011;32527;51.986;5.842;2022-10-31T01:20:10;24.80;;;15.68;;
46765;SDS011;32527;51.986;5.842;2022-10-31T01:22:37;26.70;;;14.55;;
46765;SDS011;32527;51.986;5.842;2022-10-31T01:25:03;26.08;;;15.38;;
46765;SDS011;32527;51.986;5.842;2022-10-31T01:27:30;25.38;;;14.68;;
46765;SDS011;32527;51.986;5.842;2022-10-31T01:29:56;25.92;;;14.80;;
46765;SDS011;32527;51.986;5.842;2022-10-31T01:32:22;27.38;;;14.70;;
46765;SDS011;32527;51.986;5.842;2022-10-31T01:34:49;27.55;;;14.13;;
46765;SDS011;32527;51.986;5.842;2022-10-31T01:37:15;25.85;;;13.48;;
46765;SDS011;32527;51.986;5.842;2022-10-31T01:39:41;22.30;;;13.60;;
46765;SDS011;32527;51.986;5.842;2022-10-31T01:42:07;23.52;;;13.13;;
46765;SDS011;32527;51.986;5.842;2022-10-31T01:47:13;31.98;;;14.05;;
46765;SDS011;32527;51.986;5.842;2022-10-31T01:49:43;24.17;;;12.30;;
46765;SDS011;32527;51.986;5.842;2022-10-31T01:52:19;27.55;;;14.05;;
46765;SDS011;32527;51.986;5.842;2022-10-31T01:54:48;23.77;;;13.30;;
46765;SDS011;32527;51.986;5.842;2022-10-31T01:57:18;22.83;;;13.63;;
46765;SDS011;32527;51.986;5.842;2022-10-31T01:59:51;25.08;;;13.13;;
46765;SDS011;32527;51.986;5.842;2022-10-31T02:02:21;23.80;;;13.20;;
46765;SDS011;32527;51.986;5.842;2022-10-31T02:04:48;36.47;;;14.20;;
46765;SDS011;32527;51.986;5.842;2022-10-31T02:07:18;24.40;;;13.13;;
46765;SDS011;32527;51.986;5.842;2022-10-31T02:09:48;26.60;;;13.02;;
46765;SDS011;32527;51.986;5.842;2022-10-31T02:12:15;23.75;;;13.60;;
46765;SDS011;32527;51.986;5.842;2022-10-31T02:14:43;23.60;;;13.15;;
46765;SDS011;32527;51.986;5.842;2022-10-31T02:17:09;27.27;;;13.60;;
46765;SDS011;32527;51.986;5.842;2022-10-31T02:19:39;21.98;;;13.13;;
46765;SDS011;32527;51.986;5.842;2022-10-31T02:33:36;26.05;;;13.80;;
46765;SDS011;32527;51.986;5.842;2022-10-31T02:39:58;20.30;;;12.40;;
46765;SDS011;32527;51.986;5.842;2022-10-31T02:42:07;23.55;;;13.65;;
46765;SDS011;32527;51.986;5.842;2022-10-31T02:47:28;26.33;;;14.23;;
46765;SDS011;32527;51.986;5.842;2022-10-31T02:50:18;22.25;;;13.75;;
46765;SDS011;32527;51.986;5.842;2022-10-31T02:52:51;28.85;;;14.50;;
46765;SDS011;32527;51.986;5.842;2022-10-31T02:58:05;33.10;;;15.63;;
46765;SDS011;32527;51.986;5.842;2022-10-31T03:06:14;26.90;;;15.55;;
46765;SDS011;32527;51.986;5.842;2022-10-31T03:14:33;25.30;;;16.00;;
46765;SDS011;32527;51.986;5.842;2022-10-31T03:17:06;30.70;;;16.77;;
46765;SDS011;32527;51.986;5.842;2022-10-31T03:19:39;34.65;;;16.58;;
46765;SDS011;32527;51.986;5.842;2022-10-31T03:22:12;25.63;;;15.68;;
46765;SDS011;32527;51.986;5.842;2022-10-31T03:24:42;25.25;;;16.23;;
46765;SDS011;32527;51.986;5.842;2022-10-31T03:27:10;22.83;;;15.45;;
46765;SDS011;32527;51.986;5.842;2022-10-31T03:29:38;27.85;;;15.95;;
46765;SDS011;32527;51.986;5.842;2022-10-31T03:34:50;30.27;;;15.18;;
46765;SDS011;32527;51.986;5.842;2022-10-31T03:37:19;36.47;;;17.73;;
46765;SDS011;32527;51.986;5.842;2022-10-31T03:39:47;30.95;;;16.63;;
46765;SDS011;32527;51.986;5.842;2022-10-31T03:42:20;31.73;;;15.15;;
46765;SDS011;32527;51.986;5.842;2022-10-31T03:44:55;30.80;;;15.60;;
46765;SDS011;32527;51.986;5.842;2022-10-31T03:47:26;28.13;;;16.20;;
46765;SDS011;32527;51.986;5.842;2022-10-31T03:49:52;27.75;;;14.50;;
46765;SDS011;32527;51.986;5.842;2022-10-31T03:52:24;29.67;;;15.40;;
46765;SDS011;32527;51.986;5.842;2022-10-31T04:02:21;29.63;;;16.20;;
46765;SDS011;32527;51.986;5.842;2022-10-31T04:05:17;30.98;;;16.35;;
46765;SDS011;32527;51.986;5.842;2022-10-31T04:08:00;25.30;;;15.65;;
46765;SDS011;32527;51.986;5.842;2022-10-31T04:10:56;28.13;;;16.23;;
46765;SDS011;32527;51.986;5.842;2022-10-31T04:13:38;39.05;;;16.90;;
46765;SDS011;32527;51.986;5.842;2022-10-31T04:16:29;33.20;;;16.75;;
46765;SDS011;32527;51.986;5.842;2022-10-31T04:19:43;32.22;;;16.85;;
46765;SDS011;32527;51.986;5.842;2022-10-31T04:26:54;30.35;;;16.67;;
46765;SDS011;32527;51.986;5.842;2022-10-31T04:29:28;39.70;;;17.95;;
46765;SDS011;32527;51.986;5.842;2022-10-31T04:33:11;32.53;;;17.90;;
46765;SDS011;32527;51.986;5.842;2022-10-31T04:37:17;36.03;;;17.13;;
46765;SDS011;32527;51.986;5.842;2022-10-31T04:43:21;30.98;;;16.20;;
46765;SDS011;32527;51.986;5.842;2022-10-31T04:46:21;38.08;;;18.05;;
46765;SDS011;32527;51.986;5.842;2022-10-31T04:50:21;30.90;;;16.13;;
46765;SDS011;32527;51.986;5.842;2022-10-31T04:53:05;30.52;;;17.55;;
46765;SDS011;32527;51.986;5.842;2022-10-31T04:59:07;34.72;;;17.42;;
46765;SDS011;32527;51.986;5.842;2022-10-31T05:02:47;34.33;;;17.67;;
46765;SDS011;32527;51.986;5.842;2022-10-31T05:06:26;33.70;;;18.52;;
46765;SDS011;32527;51.986;5.842;2022-10-31T05:09:07;31.00;;;17.13;;
46765;SDS011;32527;51.986;5.842;2022-10-31T05:12:18;34.38;;;17.15;;
46765;SDS011;32527;51.986;5.842;2022-10-31T05:15:39;33.50;;;16.33;;
46765;SDS011;32527;51.986;5.842;2022-10-31T05:18:41;32.75;;;17.40;;
46765;SDS011;32527;51.986;5.842;2022-10-31T05:22:19;35.90;;;17.27;;
46765;SDS011;32527;51.986;5.842;2022-10-31T05:24:45;37.17;;;18.70;;
46765;SDS011;32527;51.986;5.842;2022-10-31T05:27:12;35.55;;;18.85;;
46765;SDS011;32527;51.986;5.842;2022-10-31T05:29:37;38.88;;;19.45;;
46765;SDS011;32527;51.986;5.842;2022-10-31T05:32:03;37.08;;;17.65;;
46765;SDS011;32527;51.986;5.842;2022-10-31T05:35:04;34.17;;;18.80;;
46765;SDS011;32527;51.986;5.842;2022-10-31T05:37:53;38.75;;;19.35;;
46765;SDS011;32527;51.986;5.842;2022-10-31T05:40:19;38.75;;;19.13;;
46765;SDS011;32527;51.986;5.842;2022-10-31T05:42:47;36.10;;;19.95;;
46765;SDS011;32527;51.986;5.842;2022-10-31T05:45:16;42.50;;;19.67;;
46765;SDS011;32527;51.986;5.842;2022-10-31T05:47:59;35.67;;;19.33;;
46765;SDS011;32527;51.986;5.842;2022-10-31T05:50:40;41.30;;;20.60;;
46765;SDS011;32527;51.986;5.842;2022-10-31T05:53:09;35.75;;;19.42;;
46765;SDS011;32527;51.986;5.842;2022-10-31T05:55:37;43.67;;;21.23;;
46765;SDS011;32527;51.986;5.842;2022-10-31T05:58:23;43.05;;;20.42;;
46765;SDS011;32527;51.986;5.842;2022-10-31T06:00:58;31.98;;;18.60;;
46765;SDS011;32527;51.986;5.842;2022-10-31T06:03:23;40.50;;;19.73;;
46765;SDS011;32527;51.986;5.842;2022-10-31T06:05:53;34.45;;;18.67;;
46765;SDS011;32527;51.986;5.842;2022-10-31T06:08:21;37.25;;;19.10;;
46765;SDS011;32527;51.986;5.842;2022-10-31T06:10:48;43.33;;;22.20;;
46765;SDS011;32527;51.986;5.842;2022-10-31T06:13:19;40.85;;;21.58;;
46765;SDS011;32527;51.986;5.842;2022-10-31T06:16:05;35.15;;;20.25;;
46765;SDS011;32527;51.986;5.842;2022-10-31T06:18:35;43.35;;;21.00;;
46765;SDS011;32527;51.986;5.842;2022-10-31T06:21:01;41.55;;;21.40;;
46765;SDS011;32527;51.986;5.842;2022-10-31T06:23:27;37.65;;;20.40;;
46765;SDS011;32527;51.986;5.842;2022-10-31T06:26:12;38.25;;;20.30;;
46765;SDS011;32527;51.986;5.842;2022-10-31T06:28:38;41.97;;;20.48;;
46765;SDS011;32527;51.986;5.842;2022-10-31T06:31:27;37.10;;;19.95;;
46765;SDS011;32527;51.986;5.842;2022-10-31T06:33:54;45.13;;;20.77;;
46765;SDS011;32527;51.986;5.842;2022-10-31T06:36:20;46.20;;;22.83;;
46765;SDS011;32527;51.986;5.842;2022-10-31T06:38:46;41.20;;;20.50;;
46765;SDS011;32527;51.986;5.842;2022-10-31T06:41:15;41.72;;;22.65;;
46765;SDS011;32527;51.986;5.842;2022-10-31T06:43:45;43.03;;;22.33;;
46765;SDS011;32527;51.986;5.842;2022-10-31T06:46:28;45.65;;;21.40;;
46765;SDS011;32527;51.986;5.842;2022-10-31T06:49:27;50.90;;;22.48;;
46765;SDS011;32527;51.986;5.842;2022-10-31T06:51:58;41.75;;;21.70;;
46765;SDS011;32527;51.986;5.842;2022-10-31T06:54:25;46.88;;;22.58;;
46765;SDS011;32527;51.986;5.842;2022-10-31T06:56:51;48.63;;;24.13;;
46765;SDS011;32527;51.986;5.842;2022-10-31T06:59:17;43.60;;;22.50;;
46765;SDS011;32527;51.986;5.842;2022-10-31T07:02:03;47.60;;;23.45;;
46765;SDS011;32527;51.986;5.842;2022-10-31T07:04:30;44.38;;;23.58;;
46765;SDS011;32527;51.986;5.842;2022-10-31T07:06:56;50.17;;;23.10;;
46765;SDS011;32527;51.986;5.842;2022-10-31T07:09:25;49.80;;;23.00;;
46765;SDS011;32527;51.986;5.842;2022-10-31T07:11:56;52.38;;;25.15;;
46765;SDS011;32527;51.986;5.842;2022-10-31T07:14:28;47.05;;;23.30;;
46765;SDS011;32527;51.986;5.842;2022-10-31T07:16:54;51.88;;;23.60;;
46765;SDS011;32527;51.986;5.842;2022-10-31T07:19:30;49.78;;;23.08;;
46765;SDS011;32527;51.986;5.842;2022-10-31T07:21:56;44.78;;;23.77;;
46765;SDS011;32527;51.986;5.842;2022-10-31T07:24:26;48.05;;;23.83;;
46765;SDS011;32527;51.986;5.842;2022-10-31T07:27:28;41.83;;;22.42;;
46765;SDS011;32527;51.986;5.842;2022-10-31T07:29:54;51.17;;;24.60;;
46765;SDS011;32527;51.986;5.842;2022-10-31T07:32:20;46.88;;;25.65;;
46765;SDS011;32527;51.986;5.842;2022-10-31T07:34:51;46.33;;;24.88;;
46765;SDS011;32527;51.986;5.842;2022-10-31T07:37:31;48.42;;;24.50;;
46765;SDS011;32527;51.986;5.842;2022-10-31T07:39:58;45.35;;;23.90;;
46765;SDS011;32527;51.986;5.842;2022-10-31T07:42:23;45.72;;;23.85;;
46765;SDS011;32527;51.986;5.842;2022-10-31T07:44:50;47.08;;;24.90;;
46765;SDS011;32527;51.986;5.842;2022-10-31T07:47:38;51.50;;;25.30;;
46765;SDS011;32527;51.986;5.842;2022-10-31T07:50:29;52.88;;;23.65;;
46765;SDS011;32527;51.986;5.842;2022-10-31T07:53:15;55.58;;;25.45;;
46765;SDS011;32527;51.986;5.842;2022-10-31T07:56:13;48.42;;;23.92;;
46765;SDS011;32527;51.986;5.842;2022-10-31T07:58:39;47.83;;;23.98;;
46765;SDS011;32527;51.986;5.842;2022-10-31T08:01:05;51.72;;;25.23;;
46765;SDS011;32527;51.986;5.842;2022-10-31T08:06:23;60.22;;;24.73;;
46765;SDS011;32527;51.986;5.842;2022-10-31T08:09:07;47.30;;;22.98;;
46765;SDS011;32527;51.986;5.842;2022-10-31T08:11:33;40.75;;;23.73;;
46765;SDS011;32527;51.986;5.842;2022-10-31T08:14:00;49.67;;;24.33;;
46765;SDS011;32527;51.986;5.842;2022-10-31T08:16:26;45.63;;;24.67;;
46765;SDS011;32527;51.986;5.842;2022-10-31T08:18:56;55.67;;;26.50;;
46765;SDS011;32527;51.986;5.842;2022-10-31T08:21:22;46.95;;;25.92;;
46765;SDS011;32527;51.986;5.842;2022-10-31T08:23:48;42.90;;;21.42;;
46765;SDS011;32527;51.986;5.842;2022-10-31T08:26:17;46.20;;;22.77;;
46765;SDS011;32527;51.986;5.842;2022-10-31T08:28:43;42.67;;;22.38;;
46765;SDS011;32527;51.986;5.842;2022-10-31T08:31:13;44.55;;;22.55;;
46765;SDS011;32527;51.986;5.842;2022-10-31T08:33:39;36.75;;;22.52;;
46765;SDS011;32527;51.986;5.842;2022-10-31T08:36:18;45.30;;;20.98;;
46765;SDS011;32527;51.986;5.842;2022-10-31T08:38:56;34.83;;;19.58;;
46765;SDS011;32527;51.986;5.842;2022-10-31T08:41:22;35.88;;;21.05;;
46765;SDS011;32527;51.986;5.842;2022-10-31T08:43:51;40.38;;;22.20;;
46765;SDS011;32527;51.986;5.842;2022-10-31T08:46:17;34.05;;;19.38;;
46765;SDS011;32527;51.986;5.842;2022-10-31T08:48:43;38.55;;;21.95;;
46765;SDS011;32527;51.986;5.842;2022-10-31T08:51:09;34.17;;;20.33;;
46765;SDS011;32527;51.986;5.842;2022-10-31T08:53:36;34.60;;;20.42;;
46765;SDS011;32527;51.986;5.842;2022-10-31T08:56:28;34.65;;;21.60;;
46765;SDS011;32527;51.986;5.842;2022-10-31T08:58:53;36.15;;;21.25;;
46765;SDS011;32527;51.986;5.842;2022-10-31T09:01:29;38.28;;;21.80;;
46765;SDS011;32527;51.986;5.842;2022-10-31T09:03:55;35.53;;;21.75;;
46765;SDS011;32527;51.986;5.842;2022-10-31T09:06:21;39.78;;;20.73;;
46765;SDS011;32527;51.986;5.842;2022-10-31T09:08:47;32.70;;;20.23;;
46765;SDS011;32527;51.986;5.842;2022-10-31T09:11:13;33.97;;;20.13;;
46765;SDS011;32527;51.986;5.842;2022-10-31T09:13:58;31.77;;;19.23;;
46765;SDS011;32527;51.986;5.842;2022-10-31T09:16:27;29.98;;;18.60;;
46765;SDS011;32527;51.986;5.842;2022-10-31T09:18:53;29.90;;;16.95;;
46765;SDS011;32527;51.986;5.842;2022-10-31T09:21:19;28.35;;;17.40;;
46765;SDS011;32527;51.986;5.842;2022-10-31T09:23:45;27.88;;;17.83;;
46765;SDS011;32527;51.986;5.842;2022-10-31T09:26:11;28.17;;;16.40;;
46765;SDS011;32527;51.986;5.842;2022-10-31T09:28:44;25.52;;;14.60;;
46765;SDS011;32527;51.986;5.842;2022-10-31T09:31:13;25.85;;;15.88;;
46765;SDS011;32527;51.986;5.842;2022-10-31T09:33:49;24.38;;;16.02;;
46765;SDS011;32527;51.986;5.842;2022-10-31T09:36:37;26.48;;;17.15;;
46765;SDS011;32527;51.986;5.842;2022-10-31T09:39:05;28.35;;;16.48;;
46765;SDS011;32527;51.986;5.842;2022-10-31T09:44:18;24.70;;;15.57;;
46765;SDS011;32527;51.986;5.842;2022-10-31T09:47:09;23.13;;;14.95;;
46765;SDS011;32527;51.986;5.842;2022-10-31T09:50:18;24.07;;;15.13;;
46765;SDS011;32527;51.986;5.842;2022-10-31T09:53:25;24.15;;;14.48;;
46765;SDS011;32527;51.986;5.842;2022-10-31T09:56:28;26.05;;;15.30;;
46765;SDS011;32527;51.986;5.842;2022-10-31T09:58:58;25.42;;;15.15;;
46765;SDS011;32527;51.986;5.842;2022-10-31T10:07:11;26.85;;;15.02;;
46765;SDS011;32527;51.986;5.842;2022-10-31T10:10:32;28.73;;;14.43;;
46765;SDS011;32527;51.986;5.842;2022-10-31T10:19:21;29.42;;;16.27;;
46765;SDS011;32527;51.986;5.842;2022-10-31T10:22:25;30.80;;;18.05;;
46765;SDS011;32527;51.986;5.842;2022-10-31T10:30:41;31.80;;;18.58;;
46765;SDS011;32527;51.986;5.842;2022-10-31T10:36:27;39.97;;;21.40;;
46765;SDS011;32527;51.986;5.842;2022-10-31T10:39:11;38.20;;;19.98;;
46765;SDS011;32527;51.986;5.842;2022-10-31T10:41:44;39.38;;;18.95;;
46765;SDS011;32527;51.986;5.842;2022-10-31T10:44:33;36.92;;;20.33;;
46765;SDS011;32527;51.986;5.842;2022-10-31T10:47:20;42.00;;;23.50;;
46765;SDS011;32527;51.986;5.842;2022-10-31T10:50:22;38.33;;;19.83;;
46765;SDS011;32527;51.986;5.842;2022-10-31T10:55:36;39.13;;;19.63;;
46765;SDS011;32527;51.986;5.842;2022-10-31T10:58:08;42.22;;;22.73;;
46765;SDS011;32527;51.986;5.842;2022-10-31T11:00:36;36.42;;;19.80;;
46765;SDS011;32527;51.986;5.842;2022-10-31T11:03:05;38.90;;;19.02;;
46765;SDS011;32527;51.986;5.842;2022-10-31T11:05:36;35.00;;;18.27;;
46765;SDS011;32527;51.986;5.842;2022-10-31T11:08:24;35.58;;;18.20;;
46765;SDS011;32527;51.986;5.842;2022-10-31T11:11:35;33.30;;;16.88;;
46765;SDS011;32527;51.986;5.842;2022-10-31T11:13:42;31.83;;;16.92;;
46765;SDS011;32527;51.986;5.842;2022-10-31T11:16:11;30.75;;;17.08;;
46765;SDS011;32527;51.986;5.842;2022-10-31T11:18:41;27.75;;;15.55;;
46765;SDS011;32527;51.986;5.842;2022-10-31T11:24:15;31.38;;;17.02;;
46765;SDS011;32527;51.986;5.842;2022-10-31T11:26:43;34.45;;;17.80;;
46765;SDS011;32527;51.986;5.842;2022-10-31T11:29:19;34.78;;;17.75;;
46765;SDS011;32527;51.986;5.842;2022-10-31T11:31:47;33.67;;;18.10;;
46765;SDS011;32527;51.986;5.842;2022-10-31T11:34:26;35.33;;;18.80;;
46765;SDS011;32527;51.986;5.842;2022-10-31T11:37:02;38.38;;;19.55;;
46765;SDS011;32527;51.986;5.842;2022-10-31T11:39:43;38.65;;;20.17;;
46765;SDS011;32527;51.986;5.842;2022-10-31T11:42:10;38.67;;;19.27;;
46765;SDS011;32527;51.986;5.842;2022-10-31T11:44:36;39.25;;;19.58;;
46765;SDS011;32527;51.986;5.842;2022-10-31T11:47:10;34.60;;;18.92;;
46765;SDS011;32527;51.986;5.842;2022-10-31T11:49:41;34.15;;;18.33;;
46765;SDS011;32527;51.986;5.842;2022-10-31T11:52:20;43.80;;;19.30;;
46765;SDS011;32527;51.986;5.842;2022-10-31T11:57:23;34.15;;;19.45;;
46765;SDS011;32527;51.986;5.842;2022-10-31T11:59:51;38.67;;;18.63;;
46765;SDS011;32527;51.986;5.842;2022-10-31T12:02:19;37.20;;;18.77;;
46765;SDS011;32527;51.986;5.842;2022-10-31T12:04:46;39.33;;;19.38;;
46765;SDS011;32527;51.986;5.842;2022-10-31T12:07:22;36.90;;;20.10;;
46765;SDS011;32527;51.986;5.842;2022-10-31T12:09:48;49.47;;;22.02;;
46765;SDS011;32527;51.986;5.842;2022-10-31T12:17:56;36.97;;;18.08;;
46765;SDS011;32527;51.986;5.842;2022-10-31T12:20:35;37.10;;;19.83;;
46765;SDS011;32527;51.986;5.842;2022-10-31T12:43:04;42.28;;;21.08;;
46765;SDS011;32527;51.986;5.842;2022-10-31T12:48:23;41.20;;;19.88;;
46765;SDS011;32527;51.986;5.842;2022-10-31T12:51:17;40.30;;;20.35;;
46765;SDS011;32527;51.986;5.842;2022-10-31T13:02:43;37.28;;;19.67;;
46765;SDS011;32527;51.986;5.842;2022-10-31T13:05:16;41.42;;;19.92;;
46765;SDS011;32527;51.986;5.842;2022-10-31T13:08:06;39.72;;;19.70;;
46765;SDS011;32527;51.986;5.842;2022-10-31T13:16:40;43.72;;;20.75;;
46765;SDS011;32527;51.986;5.842;2022-10-31T13:19:10;40.13;;;21.08;;
46765;SDS011;32527;51.986;5.842;2022-10-31T13:24:28;32.67;;;18.65;;
46765;SDS011;32527;51.986;5.842;2022-10-31T13:27:23;41.83;;;21.13;;
46765;SDS011;32527;51.986;5.842;2022-10-31T13:29:56;40.28;;;21.42;;
46765;SDS011;32527;51.986;5.842;2022-10-31T13:41:02;42.58;;;21.80;;
46765;SDS011;32527;51.986;5.842;2022-10-31T13:46:34;36.75;;;19.00;;
46765;SDS011;32527;51.986;5.842;2022-10-31T13:49:02;37.50;;;19.15;;
46765;SDS011;32527;51.986;5.842;2022-10-31T13:51:29;34.63;;;18.58;;
46765;SDS011;32527;51.986;5.842;2022-10-31T13:54:00;43.22;;;19.48;;
46765;SDS011;32527;51.986;5.842;2022-10-31T13:56:31;35.80;;;18.45;;
46765;SDS011;32527;51.986;5.842;2022-10-31T13:59:03;37.03;;;19.90;;
46765;SDS011;32527;51.986;5.842;2022-10-31T14:01:35;32.38;;;18.33;;
46765;SDS011;32527;51.986;5.842;2022-10-31T14:04:03;38.83;;;18.75;;
46765;SDS011;32527;51.986;5.842;2022-10-31T14:06:44;34.67;;;19.35;;
46765;SDS011;32527;51.986;5.842;2022-10-31T14:09:27;39.08;;;19.38;;
46765;SDS011;32527;51.986;5.842;2022-10-31T14:12:10;38.78;;;19.30;;
46765;SDS011;32527;51.986;5.842;2022-10-31T14:15:02;41.10;;;18.40;;
46765;SDS011;32527;51.986;5.842;2022-10-31T14:20:42;37.88;;;19.33;;
46765;SDS011;32527;51.986;5.842;2022-10-31T14:28:42;32.47;;;17.60;;
46765;SDS011;32527;51.986;5.842;2022-10-31T14:36:20;36.85;;;20.25;;
46765;SDS011;32527;51.986;5.842;2022-10-31T14:52:37;35.05;;;18.13;;
46765;SDS011;32527;51.986;5.842;2022-10-31T14:55:05;33.75;;;18.58;;
46765;SDS011;32527;51.986;5.842;2022-10-31T14:57:34;41.80;;;18.10;;
46765;SDS011;32527;51.986;5.842;2022-10-31T15:00:06;37.22;;;18.92;;
46765;SDS011;32527;51.986;5.842;2022-10-31T15:05:06;47.47;;;18.77;;
46765;SDS011;32527;51.986;5.842;2022-10-31T15:07:33;42.53;;;20.33;;
46765;SDS011;32527;51.986;5.842;2022-10-31T15:10:00;32.92;;;17.98;;
46765;SDS011;32527;51.986;5.842;2022-10-31T15:12:29;36.25;;;17.88;;
46765;SDS011;32527;51.986;5.842;2022-10-31T15:14:56;37.17;;;18.48;;
46765;SDS011;32527;51.986;5.842;2022-10-31T15:17:24;38.50;;;18.90;;
46765;SDS011;32527;51.986;5.842;2022-10-31T15:19:51;42.70;;;19.20;;
46765;SDS011;32527;51.986;5.842;2022-10-31T15:22:18;42.80;;;20.58;;
46765;SDS011;32527;51.986;5.842;2022-10-31T15:24:47;41.58;;;19.67;;
46765;SDS011;32527;51.986;5.842;2022-10-31T15:27:14;35.35;;;19.10;;
46765;SDS011;32527;51.986;5.842;2022-10-31T15:29:54;40.22;;;19.15;;
46765;SDS011;32527;51.986;5.842;2022-10-31T15:32:25;38.35;;;19.58;;
46765;SDS011;32527;51.986;5.842;2022-10-31T15:34:52;38.13;;;18.67;;
46765;SDS011;32527;51.986;5.842;2022-10-31T15:37:21;38.83;;;19.92;;
46765;SDS011;32527;51.986;5.842;2022-10-31T15:39:49;33.75;;;17.50;;
46765;SDS011;32527;51.986;5.842;2022-10-31T15:44:48;43.65;;;18.60;;
46765;SDS011;32527;51.986;5.842;2022-10-31T15:47:19;40.53;;;20.00;;
46765;SDS011;32527;51.986;5.842;2022-10-31T15:54:50;37.25;;;20.45;;
46765;SDS011;32527;51.986;5.842;2022-10-31T16:00:06;35.85;;;18.27;;
46765;SDS011;32527;51.986;5.842;2022-10-31T16:03:07;39.55;;;21.13;;
46765;SDS011;32527;51.986;5.842;2022-10-31T16:10:20;34.80;;;17.77;;
46765;SDS011;32527;51.986;5.842;2022-10-31T16:13:52;37.90;;;18.30;;
46765;SDS011;32527;51.986;5.842;2022-10-31T16:16:49;44.00;;;19.20;;
46765;SDS011;32527;51.986;5.842;2022-10-31T16:21:43;38.25;;;20.10;;
46765;SDS011;32527;51.986;5.842;2022-10-31T16:26:51;39.92;;;19.50;;
46765;SDS011;32527;51.986;5.842;2022-10-31T16:29:32;41.38;;;19.00;;
46765;SDS011;32527;51.986;5.842;2022-10-31T16:31:58;39.85;;;20.95;;
46765;SDS011;32527;51.986;5.842;2022-10-31T16:34:24;46.00;;;21.02;;
46765;SDS011;32527;51.986;5.842;2022-10-31T16:36:50;36.97;;;18.33;;
46765;SDS011;32527;51.986;5.842;2022-10-31T16:39:16;36.67;;;19.42;;
46765;SDS011;32527;51.986;5.842;2022-10-31T16:41:50;41.17;;;18.73;;
46765;SDS011;32527;51.986;5.842;2022-10-31T16:44:24;40.20;;;20.50;;
46765;SDS011;32527;51.986;5.842;2022-10-31T16:47:07;41.35;;;20.85;;
46765;SDS011;32527;51.986;5.842;2022-10-31T16:49:33;46.78;;;23.60;;
46765;SDS011;32527;51.986;5.842;2022-10-31T16:51:59;43.10;;;21.60;;
46765;SDS011;32527;51.986;5.842;2022-10-31T16:54:25;38.03;;;20.00;;
46765;SDS011;32527;51.986;5.842;2022-10-31T16:56:51;46.88;;;21.95;;
46765;SDS011;32527;51.986;5.842;2022-10-31T16:59:17;40.85;;;21.30;;
46765;SDS011;32527;51.986;5.842;2022-10-31T17:01:43;43.55;;;19.60;;
46765;SDS011;32527;51.986;5.842;2022-10-31T17:04:15;38.25;;;19.13;;
46765;SDS011;32527;51.986;5.842;2022-10-31T17:06:41;48.38;;;20.25;;
46765;SDS011;32527;51.986;5.842;2022-10-31T17:09:07;42.20;;;20.83;;
46765;SDS011;32527;51.986;5.842;2022-10-31T17:11:33;43.25;;;20.10;;
46765;SDS011;32527;51.986;5.842;2022-10-31T17:14:00;44.03;;;22.15;;
46765;SDS011;32527;51.986;5.842;2022-10-31T17:16:26;43.75;;;21.88;;
46765;SDS011;32527;51.986;5.842;2022-10-31T17:18:51;39.30;;;20.42;;
46765;SDS011;32527;51.986;5.842;2022-10-31T17:21:18;48.50;;;21.98;;
46765;SDS011;32527;51.986;5.842;2022-10-31T17:23:47;41.95;;;19.73;;
46765;SDS011;32527;51.986;5.842;2022-10-31T17:26:14;39.47;;;20.63;;
46765;SDS011;32527;51.986;5.842;2022-10-31T17:28:39;50.47;;;20.50;;
46765;SDS011;32527;51.986;5.842;2022-10-31T17:31:05;41.03;;;19.50;;
46765;SDS011;32527;51.986;5.842;2022-10-31T17:33:35;47.65;;;21.92;;
46765;SDS011;32527;51.986;5.842;2022-10-31T17:36:01;40.00;;;19.88;;
46765;SDS011;32527;51.986;5.842;2022-10-31T17:38:28;48.28;;;21.35;;
46765;SDS011;32527;51.986;5.842;2022-10-31T17:40:53;42.88;;;20.95;;
46765;SDS011;32527;51.986;5.842;2022-10-31T17:43:19;42.97;;;22.08;;
46765;SDS011;32527;51.986;5.842;2022-10-31T17:45:45;40.35;;;20.35;;
46765;SDS011;32527;51.986;5.842;2022-10-31T17:48:11;43.17;;;21.50;;
46765;SDS011;32527;51.986;5.842;2022-10-31T17:50:37;41.55;;;20.00;;
46765;SDS011;32527;51.986;5.842;2022-10-31T17:53:03;40.03;;;21.50;;
46765;SDS011;32527;51.986;5.842;2022-10-31T17:55:29;45.13;;;23.48;;
46765;SDS011;32527;51.986;5.842;2022-10-31T17:57:56;48.22;;;21.98;;
46765;SDS011;32527;51.986;5.842;2022-10-31T18:00:21;40.00;;;21.92;;
46765;SDS011;32527;51.986;5.842;2022-10-31T18:02:48;41.65;;;19.48;;
46765;SDS011;32527;51.986;5.842;2022-10-31T18:05:14;42.58;;;20.80;;
46765;SDS011;32527;51.986;5.842;2022-10-31T18:07:40;39.35;;;20.17;;
46765;SDS011;32527;51.986;5.842;2022-10-31T18:10:07;40.33;;;19.17;;
46765;SDS011;32527;51.986;5.842;2022-10-31T18:12:36;41.80;;;19.80;;
46765;SDS011;32527;51.986;5.842;2022-10-31T18:15:02;42.47;;;18.70;;
46765;SDS011;32527;51.986;5.842;2022-10-31T18:17:28;45.30;;;19.65;;
46765;SDS011;32527;51.986;5.842;2022-10-31T18:19:54;41.63;;;21.02;;